Time;durP1;ratioP1;P1;durP2;ratioP2;P2;SDS_P1;SDS_P2;PMS_P1;PMS_P2;Temp;Humidity;BMP_temperature;BMP_pressure;BME280_temperature;BME280_humidity;BME280_pressure;Samples;Min_cycle;Max_cycle;Signal;HPM_P1;HPM_P2
2023/05/28 00:01:25;;;;;;;8.70;4.10;;;;;;;18.87;75.35;99089.13;5031251;28;20025;-72
2023/05/28 00:03:50;;;;;;;6.00;4.55;;;;;;;18.98;74.44;99077.03;5029283;28;20013;-72
2023/05/28 00:06:16;;;;;;;13.25;4.65;;;;;;;19.05;73.96;99085.53;5029808;28;20416;-72
2023/05/28 00:08:41;;;;;;;6.68;4.28;;;;;;;19.13;72.82;99092.84;5031085;28;20507;-72
2023/05/28 00:11:07;;;;;;;4.53;3.92;;;;;;;19.12;71.72;99093.25;5031193;28;20385;-72
2023/05/28 00:13:32;;;;;;;4.25;3.72;;;;;;;19.18;72.17;99098.13;5030129;28;20103;-72
2023/05/28 00:15:58;;;;;;;5.95;4.55;;;;;;;19.20;72.43;99098.53;5030436;28;20396;-72
2023/05/28 00:18:23;;;;;;;4.20;3.80;;;;;;;19.28;72.54;99095.69;5031248;28;20017;-72
2023/05/28 00:20:49;;;;;;;4.55;4.00;;;;;;;19.27;72.89;99088.41;5029522;28;20029;-72
2023/05/28 00:23:16;;;;;;;4.65;3.53;;;;;;;19.33;72.67;99089.66;5030007;28;20025;-72
2023/05/28 00:25:42;;;;;;;5.75;3.85;;;;;;;19.33;72.16;99089.66;5033230;28;20029;-72
2023/05/28 00:28:07;;;;;;;6.60;3.67;;;;;;;19.35;71.79;99088.00;5035052;28;20503;-72
2023/05/28 00:30:33;;;;;;;7.68;3.88;;;;;;;19.38;72.19;99088.44;5034906;28;20025;-72
2023/05/28 00:32:58;;;;;;;8.25;4.82;;;;;;;19.33;71.18;99076.25;5033315;28;20100;-72
2023/05/28 00:35:25;;;;;;;4.43;3.85;;;;;;;19.28;71.33;99076.69;5034842;28;20021;-72
2023/05/28 00:37:52;;;;;;;7.93;4.55;;;;;;;19.35;71.54;99078.72;5034829;28;20550;-72
2023/05/28 00:40:18;;;;;;;5.93;4.82;;;;;;;19.27;71.51;99071.41;5032585;28;20034;-72
2023/05/28 00:42:44;;;;;;;5.13;4.63;;;;;;;19.24;70.83;99078.69;5034874;28;20017;-72
2023/05/28 00:45:11;;;;;;;11.90;5.93;;;;;;;19.04;70.39;99078.25;5033914;28;20029;-72
2023/05/28 00:47:37;;;;;;;5.13;4.63;;;;;;;19.08;70.37;99071.38;5034015;28;20021;-72
2023/05/28 00:50:05;;;;;;;8.68;3.95;;;;;;;18.93;70.58;99076.19;5034437;28;20112;-72
2023/05/28 00:52:31;;;;;;;7.88;4.40;;;;;;;18.63;71.28;99068.84;5034319;28;20103;-72
2023/05/28 00:54:57;;;;;;;6.45;4.30;;;;;;;18.66;71.63;99079.38;5034736;28;20408;-72
2023/05/28 00:57:23;;;;;;;9.98;5.63;;;;;;;18.28;73.10;99075.16;5033289;28;20037;-72
2023/05/28 00:59:51;;;;;;;7.60;4.00;;;;;;;18.23;73.43;99062.22;5033242;28;20033;-72
2023/05/28 01:02:16;;;;;;;4.85;4.40;;;;;;;18.17;73.91;99069.47;5032536;28;20029;-72
2023/05/28 01:04:42;;;;;;;4.90;4.40;;;;;;;17.85;75.05;99061.56;5034192;28;20087;-72
2023/05/28 01:07:07;;;;;;;5.05;4.55;;;;;;;17.82;75.06;99061.16;5033704;28;20121;-72
2023/05/28 01:09:33;;;;;;;4.85;4.30;;;;;;;17.86;75.12;99049.03;5033709;28;20061;-72
2023/05/28 01:12:00;;;;;;;5.30;4.25;;;;;;;18.01;74.11;99050.75;5034071;28;20032;-72
2023/05/28 01:14:26;;;;;;;6.15;4.25;;;;;;;17.85;74.88;99059.56;5033909;28;20059;-72
2023/05/28 01:16:52;;;;;;;5.30;4.18;;;;;;;17.97;73.85;99049.91;5032668;28;20108;-72
2023/05/28 01:19:21;;;;;;;5.43;4.07;;;;;;;18.12;73.41;99047.22;5033912;28;20029;-72
2023/05/28 01:21:56;;;;;;;6.95;3.88;;;;;;;18.22;72.73;99044.41;5033737;28;20350;-72
2023/05/28 01:24:22;;;;;;;4.82;4.13;;;;;;;18.33;72.07;99038.78;5032706;28;20484;-72
2023/05/28 01:26:50;;;;;;;7.85;4.60;;;;;;;18.47;71.75;99040.88;5033853;28;20025;-72
2023/05/28 01:29:18;;;;;;;7.47;4.40;;;;;;;18.46;71.05;99044.09;5033962;28;20485;-73
2023/05/28 01:31:45;;;;;;;5.70;4.53;;;;;;;18.54;71.00;99039.28;5031333;28;20030;-72
2023/05/28 01:34:11;;;;;;;5.10;3.90;;;;;;;18.50;70.83;99042.09;5033857;28;20032;-72
2023/05/28 01:36:44;;;;;;;7.53;4.57;;;;;;;18.41;70.82;99041.66;5032846;28;20569;-72
2023/05/28 01:39:15;;;;;;;5.30;4.80;;;;;;;18.34;71.51;99029.13;5033809;28;20057;-72
2023/05/28 01:41:41;;;;;;;9.98;4.80;;;;;;;18.34;71.55;99023.44;5033638;28;20026;-72
2023/05/28 01:44:07;;;;;;;6.90;4.45;;;;;;;18.19;72.23;99033.06;5033446;28;20527;-72
2023/05/28 01:46:33;;;;;;;6.85;5.18;;;;;;;18.07;72.68;99037.88;5032982;28;20112;-72
2023/05/28 01:48:59;;;;;;;4.88;4.35;;;;;;;17.43;75.60;99043.91;5031660;28;20105;-72
2023/05/28 01:51:25;;;;;;;5.53;4.93;;;;;;;17.54;75.85;99034.31;5033287;28;20037;-72
2023/05/28 01:53:51;;;;;;;6.13;4.82;;;;;;;17.79;75.21;99044.97;5033373;28;20037;-72
2023/05/28 01:56:17;;;;;;;7.25;4.90;;;;;;;17.69;74.92;99040.06;5033363;28;20053;-72
2023/05/28 01:58:42;;;;;;;5.78;4.78;;;;;;;17.79;75.10;99033.66;5033168;28;20512;-72
2023/05/28 02:01:27;;;;;;;7.03;4.80;;;;;;;17.86;74.26;99038.56;5033028;28;20059;-72
2023/05/28 02:03:53;;;;;;;7.50;5.10;;;;;;;17.75;75.06;99032.00;5013547;28;20025;-72
2023/05/28 02:06:19;;;;;;;7.63;4.47;;;;;;;17.68;75.19;99032.78;5025688;28;20504;-72
2023/05/28 02:08:45;;;;;;;6.88;4.85;;;;;;;17.53;75.47;99040.34;5033121;28;20112;-72
2023/05/28 02:11:10;;;;;;;8.23;5.10;;;;;;;17.46;76.50;99045.97;5032989;28;20047;-72
2023/05/28 02:13:35;;;;;;;5.93;5.32;;;;;;;17.36;76.49;99036.19;5032475;28;20029;-72
2023/05/28 02:16:01;;;;;;;7.07;4.97;;;;;;;17.45;76.42;99024.56;5032692;28;20021;-72
2023/05/28 02:18:26;;;;;;;5.97;5.18;;;;;;;17.51;76.05;99037.13;5032965;28;20029;-72
2023/05/28 02:20:52;;;;;;;8.68;5.13;;;;;;;17.46;76.49;99043.94;5032816;28;20033;-73
2023/05/28 02:23:17;;;;;;;8.50;4.78;;;;;;;17.52;76.25;99041.56;5031869;28;20024;-72
2023/05/28 02:25:43;;;;;;;6.78;4.80;;;;;;;17.32;76.82;99038.19;5032816;28;20476;-72
2023/05/28 02:28:09;;;;;;;6.43;5.10;;;;;;;17.44;76.43;99037.06;5032632;28;20130;-72
2023/05/28 02:30:34;;;;;;;8.98;4.95;;;;;;;17.51;75.80;99043.59;5032696;28;20488;-72
2023/05/28 02:33:00;;;;;;;8.32;5.45;;;;;;;17.46;76.36;99031.84;5032661;28;20514;-72
2023/05/28 02:35:25;;;;;;;7.72;5.28;;;;;;;17.36;76.19;99033.34;5032804;28;20171;-72
2023/05/28 02:37:51;;;;;;;7.70;5.28;;;;;;;17.64;75.53;99031.97;5032340;28;20029;-72
2023/05/28 02:40:16;;;;;;;6.63;4.82;;;;;;;17.60;75.36;99031.94;5031592;28;20039;-73
2023/05/28 02:42:42;;;;;;;8.02;5.40;;;;;;;17.49;75.96;99028.22;5031351;28;20076;-72
2023/05/28 02:45:08;;;;;;;6.85;5.03;;;;;;;17.49;75.63;99029.00;5031957;28;20044;-72
2023/05/28 02:47:33;;;;;;;7.10;5.57;;;;;;;17.43;76.29;99024.13;5031495;28;20036;-72
2023/05/28 02:49:59;;;;;;;7.35;6.07;;;;;;;17.31;76.75;99025.25;5032528;28;20412;-72
2023/05/28 02:52:24;;;;;;;5.95;4.88;;;;;;;17.21;77.04;99038.91;5032081;28;20432;-72
2023/05/28 02:54:50;;;;;;;6.25;4.95;;;;;;;17.26;76.67;99032.91;5031509;28;20033;-72
2023/05/28 02:57:15;;;;;;;5.75;4.47;;;;;;;17.30;76.32;99034.94;5032160;28;20025;-72
2023/05/28 02:59:41;;;;;;;7.95;5.55;;;;;;;17.43;76.24;99041.91;5030946;28;20040;-72
2023/05/28 03:02:06;;;;;;;6.90;5.70;;;;;;;17.32;76.74;99039.00;5031742;28;20116;-72
2023/05/28 03:04:32;;;;;;;7.32;5.00;;;;;;;17.47;76.39;99045.56;5032066;28;20040;-72
2023/05/28 03:06:58;;;;;;;8.55;5.18;;;;;;;17.37;76.98;99049.13;5032221;28;20111;-72
2023/05/28 03:09:23;;;;;;;7.50;5.38;;;;;;;17.09;78.06;99040.03;5032062;28;20025;-72
2023/05/28 03:11:49;;;;;;;6.07;5.45;;;;;;;16.96;78.93;99045.13;5030766;28;20025;-72
2023/05/28 03:14:15;;;;;;;6.28;5.20;;;;;;;17.03;79.33;99052.06;5029915;28;20029;-72
2023/05/28 03:16:40;;;;;;;8.60;5.80;;;;;;;17.00;79.85;99050.84;5031765;28;20423;-73
2023/05/28 03:19:06;;;;;;;13.48;5.15;;;;;;;16.98;79.92;99056.03;5030555;28;20048;-72
2023/05/28 03:21:31;;;;;;;9.82;6.43;;;;;;;16.86;80.38;99054.28;5030573;28;20036;-72
2023/05/28 03:23:57;;;;;;;6.90;5.45;;;;;;;16.60;82.37;99058.06;5031797;28;20401;-72
2023/05/28 03:26:22;;;;;;;8.30;5.47;;;;;;;16.49;83.29;99052.28;5031814;28;20065;-72
2023/05/28 03:28:48;;;;;;;11.10;5.53;;;;;;;16.64;83.63;99056.88;5031498;28;20451;-72
2023/05/28 03:31:14;;;;;;;9.10;5.75;;;;;;;16.52;83.81;99048.69;5025352;28;20033;-72
2023/05/28 03:33:39;;;;;;;6.30;5.70;;;;;;;16.44;84.10;99058.28;5019795;28;20567;-72
2023/05/28 03:36:06;;;;;;;11.70;6.40;;;;;;;16.52;84.62;99057.16;5030283;28;20028;-72
2023/05/28 03:38:32;;;;;;;7.97;6.03;;;;;;;16.43;85.28;99063.09;5031475;28;20421;-72
2023/05/28 03:40:58;;;;;;;8.63;6.40;;;;;;;16.36;86.75;99057.38;5031399;28;20029;-72
2023/05/28 03:43:23;;;;;;;7.13;5.93;;;;;;;16.33;86.72;99070.25;5020544;28;20068;-72
2023/05/28 03:45:49;;;;;;;14.43;7.07;;;;;;;16.50;88.82;99068.00;5031067;28;20462;-72
2023/05/28 03:48:14;;;;;;;10.32;6.68;;;;;;;16.60;88.32;99072.97;5028817;28;20034;-72
2023/05/28 03:50:40;;;;;;;7.85;6.05;;;;;;;16.81;88.77;99080.88;5029974;28;20397;-72
2023/05/28 03:53:06;;;;;;;7.93;6.75;;;;;;;17.09;88.34;99073.09;5031346;28;20088;-73
2023/05/28 03:55:33;;;;;;;7.40;6.13;;;;;;;17.21;88.10;99083.31;5030247;28;20033;-72
2023/05/28 03:57:58;;;;;;;12.02;6.50;;;;;;;17.32;87.83;99089.88;5031161;28;20025;-72
2023/05/28 04:00:24;;;;;;;8.35;6.05;;;;;;;17.44;88.00;99088.75;5030925;28;20087;-74
2023/05/28 04:02:49;;;;;;;13.55;6.15;;;;;;;17.30;86.58;99103.56;5031018;28;20049;-76
2023/05/28 04:05:15;;;;;;;10.60;6.30;;;;;;;17.33;86.63;99096.34;5030293;28;20030;-76
2023/05/28 04:07:41;;;;;;;10.63;6.97;;;;;;;17.24;90.30;99100.28;5031397;28;20089;-76
2023/05/28 04:10:07;;;;;;;11.48;6.38;;;;;;;17.48;88.36;99106.56;5031124;28;20018;-76
2023/05/28 04:12:32;;;;;;;11.57;6.88;;;;;;;17.56;88.49;99103.78;5029721;28;20033;-76
2023/05/28 04:14:58;;;;;;;12.77;7.65;;;;;;;17.73;89.67;99108.75;5027876;28;20037;-75
2023/05/28 04:17:24;;;;;;;13.27;7.40;;;;;;;17.72;90.19;99115.63;5030529;28;20022;-75
2023/05/28 04:19:51;;;;;;;6.80;6.10;;;;;;;17.77;89.45;99109.63;5029766;28;20125;-75
2023/05/28 04:22:17;;;;;;;9.95;6.63;;;;;;;17.90;88.11;99120.63;5030508;28;20079;-75
2023/05/28 04:24:42;;;;;;;10.65;7.30;;;;;;;17.87;88.89;99119.38;5014660;28;20030;-76
2023/05/28 04:27:08;;;;;;;7.10;6.40;;;;;;;17.87;90.09;99112.91;5011294;28;20105;-74
2023/05/28 04:29:33;;;;;;;12.77;8.35;;;;;;;17.87;90.42;99105.22;5026455;28;20021;-74
2023/05/28 04:31:59;;;;;;;10.82;8.57;;;;;;;17.92;90.29;99112.53;5027879;28;20052;-74
2023/05/28 04:34:24;;;;;;;10.05;7.22;;;;;;;17.61;93.01;99103.41;5029443;28;20017;-75
2023/05/28 04:36:51;;;;;;;12.07;7.63;;;;;;;17.61;94.05;99114.72;5030948;28;20104;-72
2023/05/28 04:39:17;;;;;;;11.75;6.68;;;;;;;17.54;93.87;99116.31;5030804;28;20489;-73
2023/05/28 04:41:43;;;;;;;11.60;7.88;;;;;;;17.56;93.90;99120.75;5030848;28;20033;-73
2023/05/28 04:44:10;;;;;;;9.65;7.88;;;;;;;17.53;94.01;99123.16;5030242;28;20516;-73
2023/05/28 04:46:36;;;;;;;10.18;7.50;;;;;;;17.61;93.88;99109.91;5029121;28;20026;-74
2023/05/28 04:49:02;;;;;;;10.50;7.18;;;;;;;17.57;94.97;99116.72;5030494;28;20156;-76
2023/05/28 04:51:28;;;;;;;13.50;8.57;;;;;;;17.53;95.26;99114.69;5030719;28;20603;-74
2023/05/28 04:53:53;;;;;;;12.25;7.47;;;;;;;17.70;94.51;99112.38;5030612;28;20017;-74
2023/05/28 04:56:19;;;;;;;7.68;6.03;;;;;;;17.75;94.85;99119.69;5029462;28;20030;-77
2023/05/28 04:58:46;;;;;;;11.95;7.25;;;;;;;17.75;93.85;99119.69;5030416;28;20036;-75
2023/05/28 05:01:14;;;;;;;12.32;7.43;;;;;;;17.69;93.56;99116.41;5030701;28;20033;-75
2023/05/28 05:03:40;;;;;;;11.60;7.55;;;;;;;17.85;94.03;99129.44;5029857;28;20076;-73
2023/05/28 05:06:06;;;;;;;7.93;6.93;;;;;;;17.76;93.87;99118.47;5030489;28;20112;-77
2023/05/28 05:08:32;;;;;;;8.85;7.13;;;;;;;17.76;93.10;99118.47;5030723;28;20025;-74
2023/05/28 05:11:00;;;;;;;9.43;6.45;;;;;;;17.76;93.20;99122.13;5030263;28;20032;-72
2023/05/28 05:13:31;;;;;;;9.15;6.50;;;;;;;17.82;93.15;99114.09;5029095;28;20026;-73
2023/05/28 05:15:57;;;;;;;10.55;7.97;;;;;;;17.86;92.92;99117.75;5030981;28;20514;-73
2023/05/28 05:18:23;;;;;;;9.10;7.57;;;;;;;17.95;93.84;99125.88;5031049;28;20033;-74
2023/05/28 05:20:48;;;;;;;9.07;7.13;;;;;;;17.60;96.43;99110.28;5029124;28;20028;-73
2023/05/28 05:23:14;;;;;;;14.48;7.25;;;;;;;17.64;96.19;99116.78;5029812;28;20515;-73
2023/05/28 05:25:39;;;;;;;11.20;7.07;;;;;;;17.61;97.75;99114.72;5031222;28;20033;-72
2023/05/28 05:28:05;;;;;;;13.43;8.30;;;;;;;17.50;99.51;99115.47;5030111;28;20425;-72
2023/05/28 05:30:30;;;;;;;11.77;8.07;;;;;;;17.54;98.50;99096.50;5031063;28;20055;-74
2023/05/28 05:32:56;;;;;;;19.92;8.40;;;;;;;17.67;98.21;99116.00;5029032;28;20527;-71
2023/05/28 05:35:21;;;;;;;10.95;7.82;;;;;;;17.63;99.15;99120.81;5029056;28;20550;-73
2023/05/28 05:37:47;;;;;;;8.30;7.50;;;;;;;17.75;99.30;99123.34;5029878;28;20028;-74
2023/05/28 05:40:12;;;;;;;13.93;7.95;;;;;;;17.64;98.06;99116.78;5049622;28;20029;-73
2023/05/28 05:42:40;;;;;;;11.45;7.88;;;;;;;17.67;98.92;99121.66;5048913;28;20027;-73
2023/05/28 05:45:06;;;;;;;8.15;7.18;;;;;;;17.77;99.06;99128.59;5032331;28;20017;-73
2023/05/28 05:47:34;;;;;;;11.25;7.50;;;;;;;17.81;98.37;99130.25;5030839;28;20063;-74
2023/05/28 05:50:03;;;;;;;9.65;7.57;;;;;;;17.67;97.30;99125.28;5029574;28;20454;-74
2023/05/28 05:52:29;;;;;;;7.93;6.95;;;;;;;17.66;98.38;99137.00;5029231;28;20049;-73
2023/05/28 05:54:54;;;;;;;9.23;7.72;;;;;;;17.49;99.58;99156.22;5028258;28;20021;-73
2023/05/28 05:57:19;;;;;;;10.23;7.22;;;;;;;17.37;100.00;99151.69;5030126;28;20423;-73
2023/05/28 05:59:45;;;;;;;8.98;7.43;;;;;;;17.37;100.00;99145.22;5029715;28;20108;-72
2023/05/28 06:02:11;;;;;;;9.63;6.82;;;;;;;17.44;99.29;99147.31;5028160;28;20056;-80
2023/05/28 06:04:36;;;;;;;9.70;6.95;;;;;;;17.51;98.90;99151.03;5030537;28;20489;-78
2023/05/28 06:07:03;;;;;;;9.70;6.85;;;;;;;17.58;98.47;99143.78;5030386;28;20041;-79
2023/05/28 06:09:30;;;;;;;13.13;6.65;;;;;;;17.58;98.24;99163.59;5028889;28;20041;-81
2023/05/28 06:11:55;;;;;;;9.52;6.65;;;;;;;17.62;97.38;99150.31;5029192;28;20030;-78
2023/05/28 06:14:21;;;;;;;16.33;7.72;;;;;;;17.64;98.47;99168.50;5028400;28;20570;-81
2023/05/28 06:16:47;;;;;;;10.88;7.03;;;;;;;17.72;99.02;99168.56;5027621;28;20029;-74
2023/05/28 06:19:13;;;;;;;15.85;8.38;;;;;;;17.81;99.25;99166.22;5028886;28;20029;-75
2023/05/28 06:21:40;;;;;;;13.13;8.10;;;;;;;17.53;98.32;99157.09;5027194;28;20409;-75
2023/05/28 06:24:06;;;;;;;8.65;7.28;;;;;;;17.61;98.20;99162.78;5023446;28;20029;-74
2023/05/28 06:26:32;;;;;;;9.25;7.05;;;;;;;17.53;97.73;99162.75;5029650;28;20079;-73
2023/05/28 06:28:57;;;;;;;13.52;7.75;;;;;;;17.61;97.58;99157.16;5026156;28;20052;-74
2023/05/28 06:31:23;;;;;;;10.93;7.22;;;;;;;17.73;98.16;99161.69;5028416;28;20029;-73
2023/05/28 06:33:48;;;;;;;10.73;6.72;;;;;;;17.56;96.68;99174.47;5027634;28;20109;-74
2023/05/28 06:36:14;;;;;;;8.60;6.35;;;;;;;17.50;96.66;99182.50;5023772;28;20029;-73
2023/05/28 06:38:40;;;;;;;9.20;6.75;;;;;;;17.45;97.58;99166.72;5025657;28;20041;-78
2023/05/28 06:41:05;;;;;;;8.70;6.10;;;;;;;17.52;97.58;99172.44;5019987;28;20029;-78
2023/05/28 06:43:31;;;;;;;18.52;10.00;;;;;;;17.47;98.39;99158.66;5028150;28;20056;-77
2023/05/28 06:45:56;;;;;;;10.27;8.00;;;;;;;17.56;97.93;99177.31;5026376;28;20053;-77
2023/05/28 06:48:22;;;;;;;12.70;6.75;;;;;;;17.52;97.29;99171.63;5026703;28;20091;-77
2023/05/28 06:50:47;;;;;;;11.27;7.65;;;;;;;17.54;98.32;99170.03;5024268;28;20041;-77
2023/05/28 06:53:15;;;;;;;10.95;6.88;;;;;;;17.40;97.99;99162.22;5029459;28;20025;-77
2023/05/28 06:55:40;;;;;;;10.05;6.57;;;;;;;17.44;98.85;99172.78;5029557;28;20021;-77
2023/05/28 06:58:08;;;;;;;7.72;6.95;;;;;;;17.26;98.94;99173.38;5028208;28;20037;-74
2023/05/28 07:00:34;;;;;;;9.18;7.07;;;;;;;17.33;98.55;99175.47;5029315;28;20080;-74
2023/05/28 07:02:59;;;;;;;13.48;7.43;;;;;;;17.32;98.43;99182.31;5024021;28;20582;-74
2023/05/28 07:05:25;;;;;;;11.77;7.10;;;;;;;17.28;98.84;99179.47;5029467;28;20040;-73
2023/05/28 07:07:54;;;;;;;13.10;7.18;;;;;;;17.25;99.02;99181.06;5028811;28;20056;-73
2023/05/28 07:10:20;;;;;;;7.88;6.47;;;;;;;17.29;98.13;99181.09;5027008;28;20025;-75
2023/05/28 07:12:45;;;;;;;8.48;6.20;;;;;;;17.31;99.01;99183.53;5027104;28;20393;-75
2023/05/28 07:15:11;;;;;;;14.07;7.45;;;;;;;17.33;99.55;99181.13;5029422;28;20091;-76
2023/05/28 07:17:36;;;;;;;7.43;6.30;;;;;;;17.18;98.42;99189.47;5026666;28;20028;-75
2023/05/28 07:20:05;;;;;;;6.82;5.90;;;;;;;17.26;98.33;99188.34;5027529;28;20498;-76
2023/05/28 07:22:31;;;;;;;10.25;5.97;;;;;;;17.38;96.42;99186.44;5027558;28;20462;-76
2023/05/28 07:24:56;;;;;;;60.03;10.15;;;;;;;17.38;98.02;99187.25;5025460;28;20033;-81
2023/05/28 07:27:21;;;;;;;21.77;7.50;;;;;;;17.53;98.27;99178.88;5027558;28;20029;-77
2023/05/28 07:29:47;;;;;;;9.95;6.72;;;;;;;17.70;100.00;99185.91;5026470;28;20083;-81
2023/05/28 07:32:12;;;;;;;11.80;7.03;;;;;;;17.78;100.00;99184.78;5027601;28;20041;-73
2023/05/28 07:34:39;;;;;;;9.65;7.13;;;;;;;17.87;100.00;99175.16;5024830;28;20025;-78
2023/05/28 07:37:04;;;;;;;9.07;8.15;;;;;;;17.66;100.00;99173.75;5029095;28;20565;-79
2023/05/28 07:39:30;;;;;;;16.88;14.70;;;;;;;17.71;100.00;99178.25;5029179;28;20112;-74
2023/05/28 07:41:55;;;;;;;10.73;7.72;;;;;;;17.57;100.00;99179.75;5026648;28;20029;-71
2023/05/28 07:44:21;;;;;;;14.02;8.98;;;;;;;17.72;100.00;99158.03;5026941;28;20021;-75
2023/05/28 07:46:46;;;;;;;7.68;6.63;;;;;;;17.64;100.00;99162.84;5028693;28;20029;-73
2023/05/28 07:49:12;;;;;;;12.40;6.95;;;;;;;17.79;100.00;99162.94;5025626;28;20044;-74
2023/05/28 07:51:38;;;;;;;6.30;5.68;;;;;;;17.67;99.91;99172.56;5026958;28;20057;-76
2023/05/28 07:54:03;;;;;;;7.75;6.72;;;;;;;17.77;98.51;99171.00;5028574;28;20034;-74
2023/05/28 07:56:30;;;;;;;6.22;5.63;;;;;;;17.73;99.59;99164.53;5028467;28;20064;-75
2023/05/28 07:58:56;;;;;;;9.10;6.43;;;;;;;17.74;97.66;99168.97;5027352;28;20033;-76
2023/05/28 08:01:21;;;;;;;9.70;5.15;;;;;;;17.95;98.27;99171.16;5028475;28;20056;-79
2023/05/28 08:03:50;;;;;;;8.15;4.93;;;;;;;17.82;97.93;99165.00;5029030;28;20017;-80
2023/05/28 08:06:17;;;;;;;6.82;5.43;;;;;;;17.90;97.56;99168.72;5028764;28;20037;-77
2023/05/28 08:08:43;;;;;;;6.40;5.03;;;;;;;17.99;97.35;99174.84;5027746;28;20033;-76
2023/05/28 08:11:10;;;;;;;5.15;4.07;;;;;;;17.89;96.15;99167.09;5028449;28;20436;-77
2023/05/28 08:13:36;;;;;;;7.80;5.32;;;;;;;17.95;96.25;99182.47;5028285;28;20398;-73
2023/05/28 08:16:02;;;;;;;7.05;5.82;;;;;;;18.05;96.72;99180.97;5022106;28;20044;-77
2023/05/28 08:18:28;;;;;;;11.13;4.88;;;;;;;18.11;96.31;99173.72;5013989;28;20061;-73
2023/05/28 08:20:53;;;;;;;5.53;4.60;;;;;;;18.11;97.41;99176.56;5028466;28;20752;-78
2023/05/28 08:23:19;;;;;;;9.75;4.50;;;;;;;18.22;96.65;99170.97;5028164;28;20053;-78
2023/05/28 08:25:45;;;;;;;4.57;3.88;;;;;;;18.44;96.74;99171.91;5027180;28;20520;-77
2023/05/28 08:28:10;;;;;;;9.98;5.65;;;;;;;18.31;95.91;99176.28;5028461;28;20459;-77
2023/05/28 08:30:36;;;;;;;7.97;4.82;;;;;;;18.29;92.50;99179.50;5028234;28;20040;-78
2023/05/28 08:33:04;;;;;;;6.28;4.30;;;;;;;18.24;92.27;99177.84;5028204;28;20112;-78
2023/05/28 08:35:30;;;;;;;6.03;4.43;;;;;;;18.45;91.86;99173.53;5025774;28;20044;-77
2023/05/28 08:37:55;;;;;;;6.88;4.47;;;;;;;18.55;91.55;99191.00;5026890;28;20037;-71
2023/05/28 08:40:21;;;;;;;7.45;3.60;;;;;;;18.60;91.44;99182.94;5028134;28;20033;-77
2023/05/28 08:42:47;;;;;;;6.43;3.45;;;;;;;18.63;90.87;99178.47;5026693;28;20504;-75
2023/05/28 08:45:12;;;;;;;6.90;3.67;;;;;;;18.80;90.83;99176.94;5028363;28;20034;-75
2023/05/28 08:47:39;;;;;;;4.10;3.70;;;;;;;18.60;89.96;99176.44;5031338;28;20531;-75
2023/05/28 08:50:06;;;;;;;5.47;3.90;;;;;;;18.57;91.21;99178.03;5029526;28;20044;-75
2023/05/28 08:52:33;;;;;;;5.85;3.40;;;;;;;18.60;91.89;99170.78;5022210;28;20493;-74
2023/05/28 08:54:59;;;;;;;7.20;4.18;;;;;;;18.56;91.79;99162.25;5022762;28;20575;-76
2023/05/28 08:57:25;;;;;;;4.85;3.25;;;;;;;18.42;90.25;99165.84;5023678;28;20025;-74
2023/05/28 08:59:53;;;;;;;7.07;3.65;;;;;;;18.49;93.97;99165.06;5027808;28;20033;-77
2023/05/28 09:02:24;;;;;;;6.07;3.80;;;;;;;18.72;89.70;99163.97;5021456;28;20033;-76
2023/05/28 09:04:50;;;;;;;7.63;3.28;;;;;;;18.73;88.09;99174.09;5021461;28;20026;-75
2023/05/28 09:07:16;;;;;;;4.68;3.60;;;;;;;18.80;90.02;99166.44;5023239;28;20040;-74
2023/05/28 09:09:42;;;;;;;6.70;3.40;;;;;;;19.06;90.55;99170.19;5019030;28;20030;-73
2023/05/28 09:12:12;;;;;;;4.30;3.00;;;;;;;19.11;88.81;99163.31;5020655;28;20401;-74
2023/05/28 09:14:41;;;;;;;5.00;3.50;;;;;;;19.10;86.06;99167.34;5018817;28;20457;-75
2023/05/28 09:17:08;;;;;;;5.13;3.80;;;;;;;19.07;87.65;99168.16;5023741;28;20083;-73
2023/05/28 09:19:37;;;;;;;5.13;4.03;;;;;;;19.18;85.01;99166.16;5021424;28;20389;-74
2023/05/28 09:22:03;;;;;;;4.55;3.60;;;;;;;19.46;88.63;99158.91;5019888;28;20036;-74
2023/05/28 09:24:32;;;;;;;6.72;3.47;;;;;;;19.40;87.02;99159.72;5015886;28;20462;-74
2023/05/28 09:26:58;;;;;;;5.55;3.55;;;;;;;19.45;85.69;99160.13;5019096;28;20552;-73
2023/05/28 09:29:24;;;;;;;5.85;3.20;;;;;;;19.88;84.46;99161.34;5014816;28;20025;-71
2023/05/28 09:31:58;;;;;;;4.47;3.10;;;;;;;20.10;80.99;99164.19;5012381;28;20120;-71
2023/05/28 09:34:44;;;;;;;5.40;3.45;;;;;;;19.99;79.15;99167.88;5036250;28;20470;-72
2023/05/28 09:37:10;;;;;;;9.30;3.05;;;;;;;19.93;80.30;99161.00;5021030;28;20103;-72
2023/05/28 09:39:35;;;;;;;3.53;3.10;;;;;;;19.96;81.88;99163.00;5029877;28;20037;-73
2023/05/28 09:42:08;;;;;;;8.60;3.08;;;;;;;20.44;84.05;99158.06;5034177;28;20031;-74
2023/05/28 09:44:36;;;;;;;5.35;3.40;;;;;;;21.01;81.52;99156.22;5032939;28;20408;-74
2023/05/28 09:47:17;;;;;;;3.70;3.17;;;;;;;21.29;79.62;99160.91;5024931;28;20021;-81
2023/05/28 09:49:47;;;;;;;5.18;2.90;;;;;;;21.78;76.29;99156.53;5025887;28;20033;-79
2023/05/28 09:52:20;;;;;;;3.40;3.10;;;;;;;21.97;75.56;99149.47;5026848;28;20048;-80
2023/05/28 09:54:54;;;;;;;9.57;3.85;;;;;;;22.38;72.70;99164.91;5024531;28;20041;-81
2023/05/28 09:57:26;;;;;;;3.25;2.40;;;;;;;22.47;71.96;99158.72;5025100;28;20033;-81
2023/05/28 09:59:55;;;;;;;7.28;3.50;;;;;;;22.62;68.24;99145.16;5028353;28;20025;-82
2023/05/28 10:02:32;;;;;;;6.50;2.95;;;;;;;22.02;71.59;99144.13;5030411;28;20412;-82
2023/05/28 10:05:03;;;;;;;4.18;2.75;;;;;;;21.70;72.85;99133.81;5025419;28;20074;-73
2023/05/28 10:07:28;;;;;;;4.30;3.03;;;;;;;21.78;74.40;99136.63;5022999;28;20041;-80
2023/05/28 10:09:57;;;;;;;6.22;2.55;;;;;;;21.90;69.24;99132.44;5023064;28;20551;-76
2023/05/28 10:12:27;;;;;;;5.38;3.03;;;;;;;21.69;70.41;99137.91;5022757;28;20140;-77
2023/05/28 10:14:54;;;;;;;3.88;2.75;;;;;;;21.42;70.34;99135.66;5022239;28;20044;-74
2023/05/28 10:17:22;;;;;;;5.10;3.22;;;;;;;21.15;71.46;99126.88;5027826;28;20090;-84
2023/05/28 10:19:47;;;;;;;4.82;3.38;;;;;;;21.43;73.65;99125.88;5035141;28;20023;-79
2023/05/28 10:22:20;;;;;;;4.22;2.78;;;;;;;21.77;71.63;99124.41;5025838;28;20021;-75
2023/05/28 10:24:46;;;;;;;5.88;3.22;;;;;;;22.17;70.73;99118.34;5029226;28;20040;-76
2023/05/28 10:27:15;;;;;;;6.43;3.25;;;;;;;22.36;70.24;99119.75;5021798;28;20940;-84
2023/05/28 10:29:48;;;;;;;7.73;3.53;;;;;;;22.63;68.68;99119.09;5045603;28;20488;-80
2023/05/28 10:32:17;;;;;;;4.47;3.13;;;;;;;22.88;66.26;99109.38;5023145;28;20113;-75
2023/05/28 10:34:43;;;;;;;4.05;2.70;;;;;;;22.64;67.82;99115.00;5033490;28;20084;-76
2023/05/28 10:37:10;;;;;;;2.97;2.67;;;;;;;22.90;65.55;99109.75;5031322;28;20052;-75
2023/05/28 10:39:42;;;;;;;5.25;3.35;;;;;;;22.92;65.51;99112.16;5040562;28;20041;-76
2023/05/28 10:42:09;;;;;;;5.13;3.47;;;;;;;22.89;66.17;99087.38;5028594;28;20144;-76
2023/05/28 10:44:59;;;;;;;4.03;2.85;;;;;;;22.40;65.01;99094.06;5040211;28;20565;-75
2023/05/28 10:47:35;;;;;;;6.18;3.70;;;;;;;22.48;64.94;99081.41;5028726;28;20044;-84
2023/05/28 10:50:10;;;;;;;4.35;2.90;;;;;;;22.13;65.35;99087.03;5023254;28;20033;-77
2023/05/28 10:52:36;;;;;;;3.63;3.20;;;;;;;22.07;67.11;99080.22;5039047;28;20049;-78
2023/05/28 10:55:04;;;;;;;4.57;3.90;;;;;;;22.26;68.40;99075.09;5028274;28;20029;-74
2023/05/28 10:57:47;;;;;;;7.30;3.70;;;;;;;21.79;67.44;99079.28;5027777;28;20029;-79
2023/05/28 11:00:23;;;;;;;5.05;3.72;;;;;;;21.59;68.38;99064.78;5026080;28;20640;-78
2023/05/28 11:02:51;;;;;;;3.35;3.05;;;;;;;21.39;66.26;99062.53;5030058;28;20112;-77
2023/05/28 11:05:25;;;;;;;4.93;3.33;;;;;;;21.02;69.32;99062.00;5027934;28;20461;-78
2023/05/28 11:07:51;;;;;;;5.03;3.30;;;;;;;21.01;67.99;99063.22;5044152;28;20399;-76
2023/05/28 11:10:17;;;;;;;3.85;2.75;;;;;;;21.16;67.38;99063.09;5022590;28;20025;-74
2023/05/28 11:12:45;;;;;;;3.00;2.80;;;;;;;21.41;67.20;99062.09;5024672;28;20033;-72
2023/05/28 11:15:13;;;;;;;25.75;11.98;;;;;;;21.49;67.05;99062.88;5026239;28;20172;-82
2023/05/28 11:17:41;;;;;;;2.90;2.70;;;;;;;21.12;66.61;99057.47;5031568;28;20407;-73
2023/05/28 11:20:24;;;;;;;3.40;3.10;;;;;;;20.90;68.49;99053.94;5035063;28;20108;-72
2023/05/28 11:22:50;;;;;;;7.28;3.38;;;;;;;20.72;68.23;99062.56;5031683;28;20464;-75
2023/05/28 11:25:16;;;;;;;4.38;3.50;;;;;;;20.82;69.94;99064.56;5023892;28;20025;-74
2023/05/28 11:27:42;;;;;;;3.97;3.08;;;;;;;20.68;68.91;99076.78;5041539;28;20120;-79
2023/05/28 11:30:08;;;;;;;4.85;3.13;;;;;;;20.94;69.01;99074.66;5039953;28;20021;-81